Time;durP1;ratioP1;P1;durP2;ratioP2;P2;SDS_P1;SDS_P2;PMS_P1;PMS_P2;Temp;Humidity;BMP_temperature;BMP_pressure;BME280_temperature;BME280_humidity;BME280_pressure;Samples;Min_cycle;Max_cycle;Signal;HPM_P1;HPM_P2
2023/01/31 00:04:57;;;;;;;1999.90;999.90;;;;;;;3.57;100.00;102340.25;10479371;28;20086;-67
2023/01/31 00:10:00;;;;;;;1999.90;999.90;;;;;;;3.40;100.00;102335.13;10459406;28;20056;-67
2023/01/31 00:15:02;;;;;;;1999.90;999.90;;;;;;;3.38;100.00;102348.06;10458271;28;20075;-67
2023/01/31 00:20:05;;;;;;;1999.90;999.90;;;;;;;3.24;100.00;102353.25;10465180;28;20062;-67
2023/01/31 00:25:08;;;;;;;1999.90;999.90;;;;;;;3.10;100.00;102355.00;10478971;28;20064;-67
2023/01/31 00:30:11;;;;;;;1999.90;999.90;;;;;;;3.07;100.00;102353.28;10447657;28;20154;-67
2023/01/31 00:35:13;;;;;;;1999.90;999.90;;;;;;;3.01;100.00;102355.00;10484763;28;20060;-67
2023/01/31 00:40:15;;;;;;;1999.90;999.90;;;;;;;2.88;100.00;102347.25;10458535;28;20075;-67
2023/01/31 00:45:18;;;;;;;1999.90;999.90;;;;;;;3.01;100.00;102347.25;10441572;28;20057;-67
2023/01/31 00:50:21;;;;;;;1999.90;999.90;;;;;;;2.89;100.00;102335.19;10456888;28;20060;-67
2023/01/31 00:55:23;;;;;;;1999.90;999.90;;;;;;;2.75;100.00;102330.03;10472877;28;20055;-67
2023/01/31 01:00:25;;;;;;;1999.90;999.90;;;;;;;2.83;100.00;102317.09;10473959;28;20059;-67
2023/01/31 01:05:28;;;;;;;1999.90;999.90;;;;;;;2.65;100.00;102317.97;10466585;28;20084;-67
2023/01/31 01:10:30;;;;;;;1999.90;999.90;;;;;;;2.62;100.00;102317.94;10464073;28;20545;-67
2023/01/31 01:15:37;;;;;;;1999.90;999.90;;;;;;;2.81;100.00;102308.44;10431564;28;20143;-67
2023/01/31 01:20:39;;;;;;;1999.90;999.90;;;;;;;2.59;100.00;102313.66;10456602;28;20049;-67
2023/01/31 01:25:43;;;;;;;1999.90;999.90;;;;;;;2.59;100.00;102314.50;10456383;28;20484;-67
2023/01/31 01:30:46;;;;;;;1999.90;999.90;;;;;;;2.68;100.00;102326.56;10436369;28;20057;-67
2023/01/31 01:35:48;;;;;;;1999.90;999.90;;;;;;;2.78;100.00;102314.50;10454543;28;20060;-67
2023/01/31 01:40:50;;;;;;;1999.90;999.90;;;;;;;2.71;100.00;102305.88;10457863;28;20059;-67
2023/01/31 01:45:53;;;;;;;1999.90;999.90;;;;;;;2.62;100.00;102320.53;10457309;28;20068;-67
2023/01/31 01:50:55;;;;;;;1999.90;999.90;;;;;;;2.48;100.00;102318.81;10454438;28;20049;-67
2023/01/31 01:56:03;;;;;;;1999.90;999.90;;;;;;;2.50;100.00;102313.63;10453518;28;20053;-67
2023/01/31 02:01:08;;;;;;;1999.90;999.90;;;;;;;2.39;100.00;102318.81;10456058;28;20071;-67
2023/01/31 02:06:11;;;;;;;1999.90;999.90;;;;;;;2.47;100.00;102316.22;10453367;28;20143;-67
2023/01/31 02:11:28;;;;;;;1999.90;999.90;;;;;;;2.49;100.00;102319.66;10437498;28;20111;-67
2023/01/31 02:16:31;;;;;;;1999.90;999.90;;;;;;;2.55;100.00;102314.50;10444332;28;20057;-67
2023/01/31 02:22:01;;;;;;;1999.90;999.90;;;;;;;2.42;100.00;102323.97;10448885;28;20488;-67
2023/01/31 02:27:28;;;;;;;1999.90;999.90;;;;;;;2.58;100.00;102330.88;10454020;28;20049;-67
2023/01/31 02:32:51;;;;;;;1999.90;999.90;;;;;;;2.67;100.00;102327.41;10415400;28;20060;-67
2023/01/31 02:38:14;;;;;;;1999.90;999.90;;;;;;;2.84;100.00;102327.44;10438220;28;20115;-66
2023/01/31 02:43:23;;;;;;;1999.90;999.90;;;;;;;2.86;100.00;102320.53;10397548;28;20054;-66
2023/01/31 02:48:42;;;;;;;1999.90;999.90;;;;;;;2.90;100.00;102309.31;10428029;28;20053;-66
2023/01/31 02:53:46;;;;;;;1999.90;999.90;;;;;;;3.08;100.00;102297.22;10453216;28;20053;-67
2023/01/31 02:58:52;;;;;;;1999.90;999.90;;;;;;;3.03;100.00;102296.38;10454435;28;20057;-67
2023/01/31 03:03:58;;;;;;;1999.90;999.90;;;;;;;3.06;100.00;102304.09;10456031;28;20060;-67
2023/01/31 03:09:23;;;;;;;1999.90;999.90;;;;;;;3.22;100.00;102297.19;10431787;28;20049;-67
2023/01/31 03:14:47;;;;;;;1999.90;999.90;;;;;;;3.11;100.00;102281.66;10449376;28;20546;-67
2023/01/31 03:20:04;;;;;;;1999.90;999.90;;;;;;;3.07;100.00;102279.97;10452367;28;20439;-67
2023/01/31 03:25:08;;;;;;;1999.90;999.90;;;;;;;3.13;100.00;102277.38;10454638;28;20049;-67
2023/01/31 03:30:42;;;;;;;1999.90;999.90;;;;;;;3.17;100.00;102277.34;10454352;28;20123;-67
2023/01/31 03:35:49;;;;;;;1999.90;999.90;;;;;;;3.25;100.00;102264.38;10440815;28;20135;-67
2023/01/31 03:40:56;;;;;;;1999.90;999.90;;;;;;;3.23;100.00;102273.88;10442112;28;20495;-67
2023/01/31 03:46:05;;;;;;;1999.90;999.90;;;;;;;3.36;100.00;102253.97;10454558;28;20388;-67
2023/01/31 03:51:10;;;;;;;1999.90;999.90;;;;;;;3.42;100.00;102260.88;10440487;28;20492;-67
2023/01/31 03:56:17;;;;;;;1999.90;999.90;;;;;;;3.43;100.00;102250.50;10443613;28;20404;-67
2023/01/31 04:01:23;;;;;;;1999.90;999.90;;;;;;;3.41;100.00;102261.72;10459893;28;20049;-67
2023/01/31 04:06:26;;;;;;;1999.90;999.90;;;;;;;3.49;100.00;102250.47;10455555;28;20129;-67
2023/01/31 04:11:28;;;;;;;1999.90;999.90;;;;;;;3.46;100.00;102249.63;10458142;28;20057;-67
2023/01/31 04:16:31;;;;;;;1999.90;999.90;;;;;;;3.56;100.00;102246.13;10457201;28;20446;-67
2023/01/31 04:21:36;;;;;;;1999.90;999.90;;;;;;;3.60;100.00;102237.47;10454427;28;20053;-67
2023/01/31 04:26:38;;;;;;;1999.90;999.90;;;;;;;3.58;100.00;102235.75;10458148;28;20049;-67
2023/01/31 04:31:40;;;;;;;1999.90;999.90;;;;;;;3.58;100.00;102239.22;10460364;28;20487;-67
2023/01/31 04:36:43;;;;;;;1999.90;999.90;;;;;;;3.74;100.00;102223.59;10455173;28;20091;-67
2023/01/31 04:41:45;;;;;;;1999.90;999.90;;;;;;;3.64;100.00;102221.03;10459298;28;20056;-67
2023/01/31 04:46:48;;;;;;;1999.90;999.90;;;;;;;3.67;100.00;102222.78;10458422;28;20412;-67
2023/01/31 04:51:50;;;;;;;1999.90;999.90;;;;;;;3.63;100.00;102216.75;10454853;28;20510;-67
2023/01/31 04:56:53;;;;;;;1999.90;999.90;;;;;;;3.59;100.00;102202.06;10454483;28;20390;-67
2023/01/31 05:01:55;;;;;;;1999.90;999.90;;;;;;;3.56;100.00;102193.47;10457225;28;20103;-67
2023/01/31 05:06:57;;;;;;;1999.90;999.90;;;;;;;3.80;100.00;102195.91;10454996;28;20053;-68
2023/01/31 05:12:00;;;;;;;1999.90;999.90;;;;;;;3.72;100.00;102195.09;10455378;28;20110;-67
2023/01/31 05:17:02;;;;;;;1999.90;999.90;;;;;;;3.69;100.00;102189.94;10458528;28;20492;-67
2023/01/31 05:22:05;;;;;;;1999.90;999.90;;;;;;;3.74;100.00;102171.78;10457541;28;20131;-67
2023/01/31 05:27:09;;;;;;;1999.90;999.90;;;;;;;3.74;100.00;102170.03;10457706;28;20049;-67
2023/01/31 05:32:13;;;;;;;1999.90;999.90;;;;;;;3.72;100.00;102177.81;10456579;28;20053;-67
2023/01/31 05:37:15;;;;;;;1999.90;999.90;;;;;;;3.70;100.00;102164.03;10456746;28;20052;-67
2023/01/31 05:42:17;;;;;;;1999.90;999.90;;;;;;;3.76;100.00;102162.25;10457154;28;20661;-67
2023/01/31 05:47:22;;;;;;;1999.90;999.90;;;;;;;3.76;100.00;102160.53;10456206;28;20100;-67
2023/01/31 05:52:24;;;;;;;1999.90;999.90;;;;;;;3.66;100.00;102157.13;10454938;28;20055;-67
2023/01/31 05:57:27;;;;;;;1999.90;999.90;;;;;;;3.53;100.00;102158.97;10457484;28;20056;-67
2023/01/31 06:02:30;;;;;;;1999.90;999.90;;;;;;;3.70;100.00;102160.59;10457239;28;20061;-67
2023/01/31 06:07:33;;;;;;;1999.90;999.90;;;;;;;3.65;100.00;102154.59;10451676;28;20477;-67
2023/01/31 06:12:35;;;;;;;1999.90;999.90;;;;;;;3.63;100.00;102156.28;10455265;28;20057;-67
2023/01/31 06:17:38;;;;;;;1999.90;999.90;;;;;;;3.66;100.00;102154.53;10456770;28;20060;-67
2023/01/31 06:22:41;;;;;;;1999.90;999.90;;;;;;;3.59;100.00;102142.50;10453023;28;20538;-67
2023/01/31 06:27:43;;;;;;;1999.90;999.90;;;;;;;3.61;100.00;102142.50;10452863;28;20049;-67
2023/01/31 06:32:46;;;;;;;1999.90;999.90;;;;;;;3.65;100.00;102133.88;10453653;28;20057;-67
2023/01/31 06:37:48;;;;;;;1999.90;999.90;;;;;;;3.61;100.00;102127.81;10454410;28;20057;-67
2023/01/31 06:42:50;;;;;;;1999.90;999.90;;;;;;;3.61;100.00;102112.28;10450651;28;20052;-67
2023/01/31 06:47:53;;;;;;;1999.90;999.90;;;;;;;3.52;100.00;102120.13;10456062;28;20447;-67
2023/01/31 06:52:55;;;;;;;1999.90;999.90;;;;;;;3.58;100.00;102117.50;10456237;28;20053;-67
2023/01/31 06:57:58;;;;;;;1999.90;999.90;;;;;;;3.61;100.00;102116.59;10454332;28;20136;-67
2023/01/31 07:03:00;;;;;;;1999.90;999.90;;;;;;;3.72;100.00;102112.22;10462323;28;20053;-67
2023/01/31 07:08:02;;;;;;;1999.90;999.90;;;;;;;3.79;100.00;102115.63;10428697;28;20485;-68
2023/01/31 07:13:05;;;;;;;1999.90;999.90;;;;;;;3.78;100.00;102101.78;10460668;28;20064;-67
2023/01/31 07:18:07;;;;;;;1999.90;999.90;;;;;;;3.83;100.00;102091.38;10455758;28;20045;-67
2023/01/31 07:23:10;;;;;;;1999.90;999.90;;;;;;;3.79;100.00;102100.06;10463232;28;20049;-67
2023/01/31 07:28:12;;;;;;;1999.90;999.90;;;;;;;3.92;100.00;102086.13;10460763;28;20049;-67
2023/01/31 07:33:14;;;;;;;1999.90;999.90;;;;;;;3.96;100.00;102108.53;10461253;28;20111;-67
2023/01/31 07:38:17;;;;;;;1999.90;999.90;;;;;;;4.05;100.00;102084.28;10461986;28;20404;-66
2023/01/31 07:43:19;;;;;;;1999.90;999.90;;;;;;;4.02;100.00;102087.78;10459839;28;20423;-67
2023/01/31 07:48:25;;;;;;;1999.90;999.90;;;;;;;4.20;100.00;102088.44;10455732;28;20045;-67
2023/01/31 07:53:28;;;;;;;1999.90;999.90;;;;;;;4.14;100.00;102089.38;10476618;28;20491;-67
2023/01/31 07:58:32;;;;;;;1999.90;999.90;;;;;;;4.16;100.00;102081.59;10450838;28;20055;-67
2023/01/31 08:03:35;;;;;;;1999.90;999.90;;;;;;;4.16;100.00;102068.63;10414990;28;20053;-67
2023/01/31 08:08:39;;;;;;;1999.90;999.90;;;;;;;4.19;100.00;102063.44;10456643;28;20155;-68
2023/01/31 08:13:41;;;;;;;1999.90;999.90;;;;;;;4.40;100.00;102055.38;10468644;28;20099;-67
2023/01/31 08:18:43;;;;;;;1999.90;999.90;;;;;;;4.35;100.00;102059.75;10451858;28;20412;-67
2023/01/31 08:23:46;;;;;;;1999.90;999.90;;;;;;;4.57;100.00;102042.25;10460256;28;20060;-66
2023/01/31 08:28:50;;;;;;;1999.90;999.90;;;;;;;4.64;100.00;102046.47;10455308;28;20052;-67
2023/01/31 08:33:54;;;;;;;1999.90;999.90;;;;;;;4.65;100.00;102032.59;10456548;28;20053;-67
2023/01/31 08:38:56;;;;;;;1999.90;999.90;;;;;;;4.68;100.00;102021.34;10470350;28;20049;-67
2023/01/31 08:43:59;;;;;;;1999.90;999.90;;;;;;;4.77;100.00;102016.00;10442514;28;20060;-67
2023/01/31 08:49:06;;;;;;;1999.90;999.90;;;;;;;5.00;100.00;102002.72;10452446;28;20499;-67
2023/01/31 08:54:09;;;;;;;1999.90;999.90;;;;;;;5.01;100.00;101995.81;10438872;28;20512;-67
2023/01/31 08:59:11;;;;;;;1999.90;999.90;;;;;;;5.18;100.00;102003.34;10418174;28;20055;-67
2023/01/31 09:04:14;;;;;;;1999.90;999.90;;;;;;;5.18;100.00;102013.72;10418164;28;20057;-67
2023/01/31 09:09:16;;;;;;;1999.90;999.90;;;;;;;5.18;100.00;101993.78;10417928;28;20050;-67
2023/01/31 09:14:18;;;;;;;1999.90;999.90;;;;;;;5.45;100.00;101983.84;10400209;28;20072;-66
2023/01/31 09:19:22;;;;;;;1999.90;999.90;;;;;;;5.26;100.00;101992.81;10417451;28;20088;-67
2023/01/31 09:24:24;;;;;;;1999.90;999.90;;;;;;;5.58;100.00;102002.66;10416115;28;20492;-67
2023/01/31 09:29:28;;;;;;;1999.90;999.90;;;;;;;5.44;100.00;101989.91;10416495;28;20072;-67
2023/01/31 09:34:31;;;;;;;1999.90;999.90;;;;;;;5.54;100.00;101975.03;10417017;28;20058;-67
2023/01/31 09:39:33;;;;;;;1999.90;999.90;;;;;;;5.45;100.00;101968.25;10408697;28;20057;-67
2023/01/31 09:44:41;;;;;;;1999.90;999.90;;;;;;;5.63;100.00;101984.41;10416479;28;20057;-67
2023/01/31 09:49:56;;;;;;;1999.90;999.90;;;;;;;5.66;100.00;101976.56;10398557;28;20057;-67
2023/01/31 09:54:59;;;;;;;1999.90;999.90;;;;;;;5.72;100.00;101992.03;10416258;28;20060;-67
2023/01/31 10:00:10;;;;;;;1999.90;999.90;;;;;;;5.76;100.00;101965.09;10416150;28;20054;-67
2023/01/31 10:05:38;;;;;;;1999.90;999.90;;;;;;;5.86;100.00;101969.25;10415480;28;20049;-67
2023/01/31 10:11:01;;;;;;;1999.90;999.90;;;;;;;5.79;100.00;101985.00;10398464;28;20065;-67
2023/01/31 10:16:28;;;;;;;1999.90;999.90;;;;;;;5.83;100.00;101986.63;10397635;28;20416;-67
2023/01/31 10:21:37;;;;;;;1999.90;999.90;;;;;;;5.76;100.00;101963.34;10415702;28;20053;-67
2023/01/31 10:26:42;;;;;;;1999.90;999.90;;;;;;;5.80;100.00;101979.78;10398117;28;20049;-67
2023/01/31 10:31:51;;;;;;;1999.90;999.90;;;;;;;5.68;100.00;101966.97;10415840;28;20060;-67
2023/01/31 10:37:09;;;;;;;1999.90;999.90;;;;;;;5.78;100.00;101968.53;10423167;28;20508;-67
2023/01/31 10:42:22;;;;;;;1999.90;999.90;;;;;;;5.89;100.00;101951.00;10423702;28;20049;-66
2023/01/31 10:47:32;;;;;;;1999.90;999.90;;;;;;;5.91;100.00;101936.22;10405351;28;20058;-66
2023/01/31 10:52:49;;;;;;;1999.90;999.90;;;;;;;6.02;100.00;101948.16;10405847;28;20049;-67
2023/01/31 10:57:52;;;;;;;1999.90;999.90;;;;;;;5.99;100.00;101948.25;10405654;28;20128;-67
2023/01/31 11:02:55;;;;;;;1999.90;999.90;;;;;;;6.11;100.00;101930.66;10405281;28;20053;-67
2023/01/31 11:07:59;;;;;;;1999.90;999.90;;;;;;;5.83;100.00;101927.69;10422659;28;20053;-67
2023/01/31 11:13:06;;;;;;;1999.90;999.90;;;;;;;5.86;100.00;101912.06;10404995;28;20061;-66
2023/01/31 11:18:15;;;;;;;1999.90;999.90;;;;;;;6.20;100.00;101920.94;10421617;28;20058;-67
2023/01/31 11:23:22;;;;;;;1999.90;999.90;;;;;;;6.21;100.00;101933.06;10403997;28;20556;-67
2023/01/31 11:28:32;;;;;;;1999.90;999.90;;;;;;;6.06;100.00;101923.84;10404413;28;20049;-67
2023/01/31 11:33:55;;;;;;;1999.90;999.90;;;;;;;6.03;100.00;101918.69;10404426;28;20054;-67
2023/01/31 11:38:57;;;;;;;1999.90;999.90;;;;;;;6.11;100.00;101911.59;10420735;28;20555;-67
2023/01/31 11:44:15;;;;;;;1999.90;999.90;;;;;;;6.15;100.00;101928.84;10403567;28;20057;-67
2023/01/31 11:49:43;;;;;;;1999.90;999.90;;;;;;;6.20;100.00;101914.00;10403397;28;20053;-67
2023/01/31 11:54:53;;;;;;;1999.90;999.90;;;;;;;6.07;100.00;101908.22;10400406;28;20136;-67
2023/01/31 11:59:58;;;;;;;1999.90;999.90;;;;;;;6.19;100.00;101901.03;10453707;23;20057;-74
2023/01/31 12:05:06;;;;;;;1999.90;999.90;;;;;;;6.24;100.00;101886.19;10443603;28;20499;-74
2023/01/31 12:10:30;;;;;;;1999.90;999.90;;;;;;;6.19;100.00;101888.03;10461575;28;20052;-73
2023/01/31 12:15:32;;;;;;;1999.90;999.90;;;;;;;6.13;100.00;101887.25;10443699;28;20045;-74
2023/01/31 12:20:41;;;;;;;1999.90;999.90;;;;;;;6.18;100.00;101894.13;10461680;28;20053;-73
2023/01/31 12:26:01;;;;;;;1999.90;999.90;;;;;;;6.17;100.00;101898.47;10443246;28;20412;-74
2023/01/31 12:31:21;;;;;;;1999.90;999.90;;;;;;;6.00;100.00;101901.44;10460800;28;20079;-74
2023/01/31 12:36:29;;;;;;;1999.90;999.90;;;;;;;6.16;100.00;101914.09;10459848;28;20492;-73
2023/01/31 12:41:40;;;;;;;1999.90;999.90;;;;;;;6.27;100.00;101915.59;10459757;28;20053;-74
2023/01/31 12:47:01;;;;;;;1999.90;999.90;;;;;;;6.11;100.00;101906.41;10442566;28;20136;-72
2023/01/31 12:52:31;;;;;;;1999.90;999.90;;;;;;;6.43;100.00;101915.25;10442976;28;20434;-75
2023/01/31 12:57:40;;;;;;;1999.90;999.90;;;;;;;6.36;100.00;101904.13;10458513;28;20053;-73
2023/01/31 13:03:21;;;;;;;1999.90;999.90;;;;;;;6.40;100.00;101904.91;10458846;28;20096;-75
2023/01/31 13:08:30;;;;;;;1999.90;999.90;;;;;;;6.43;100.00;101904.84;10459328;28;20075;-75
2023/01/31 13:13:44;;;;;;;1999.90;999.90;;;;;;;6.37;100.00;101899.78;10458462;28;20063;-73
2023/01/31 13:18:49;;;;;;;1999.90;999.90;;;;;;;6.44;100.00;101894.41;10441148;28;20095;-75
2023/01/31 13:24:14;;;;;;;1999.90;999.90;;;;;;;6.60;100.00;101902.69;10440299;28;20408;-74
2023/01/31 13:29:42;;;;;;;1999.90;999.90;;;;;;;6.47;100.00;101883.06;10457909;28;20048;-74
2023/01/31 13:34:52;;;;;;;1999.90;999.90;;;;;;;6.72;100.00;101885.09;10440677;28;20102;-75
2023/01/31 13:39:59;;;;;;;1999.90;999.90;;;;;;;6.70;100.00;101878.16;10457396;28;20087;-73
2023/01/31 13:45:06;;;;;;;1999.90;999.90;;;;;;;6.68;100.00;101868.72;10439646;28;20060;-74
2023/01/31 13:50:34;;;;;;;1999.90;999.90;;;;;;;6.59;100.00;101867.19;10424519;28;20132;-74
2023/01/31 13:55:39;;;;;;;1999.90;999.90;;;;;;;6.91;100.00;101882.91;10439853;28;20615;-75
2023/01/31 14:00:58;;;;;;;1999.90;999.90;;;;;;;6.90;100.00;101882.06;10439470;28;20545;-75
2023/01/31 14:06:01;;;;;;;1999.90;999.90;;;;;;;6.99;100.00;101881.84;10439871;28;20144;-75
2023/01/31 14:11:24;;;;;;;1999.90;999.90;;;;;;;7.02;100.00;101876.53;10457035;28;20053;-75
2023/01/31 14:16:39;;;;;;;1999.90;999.90;;;;;;;7.19;100.00;101883.06;10456309;28;20476;-74
2023/01/31 14:21:56;;;;;;;1999.90;999.90;;;;;;;7.10;100.00;101880.72;10439388;28;20053;-75
2023/01/31 14:26:59;;;;;;;1999.90;999.90;;;;;;;7.17;100.00;101875.28;10457458;28;20072;-75
2023/01/31 14:32:28;;;;;;;1999.90;999.90;;;;;;;7.16;100.00;101878.81;10438464;28;20400;-75
2023/01/31 14:37:48;;;;;;;1999.90;999.90;;;;;;;7.28;100.00;101889.78;10439002;28;20053;-75
2023/01/31 14:43:18;;;;;;;1999.90;999.90;;;;;;;7.28;100.00;101911.50;10455903;28;20411;-73
2023/01/31 14:48:54;;;;;;;1999.90;999.90;;;;;;;7.34;100.00;101919.13;10456462;28;20061;-75
2023/01/31 14:53:59;;;;;;;1999.90;999.90;;;;;;;7.50;100.00;101908.31;10456357;28;20060;-75
2023/01/31 14:59:02;;;;;;;1999.90;999.90;;;;;;;7.45;100.00;101903.22;10455379;28;20484;-74
2023/01/31 15:04:05;;;;;;;1999.90;999.90;;;;;;;7.66;100.00;101898.34;10438499;28;20086;-73
2023/01/31 15:09:23;;;;;;;1999.90;999.90;;;;;;;7.56;100.00;101916.81;10438296;28;20063;-74
2023/01/31 15:14:37;;;;;;;1999.90;999.90;;;;;;;7.68;100.00;101920.00;10456463;28;20060;-75
2023/01/31 15:19:49;;;;;;;1999.90;999.90;;;;;;;7.66;100.00;101929.59;10440142;28;20049;-76
2023/01/31 15:24:55;;;;;;;1999.90;999.90;;;;;;;7.63;100.00;101922.72;10445559;28;20057;-75
2023/01/31 15:29:58;;;;;;;1999.90;999.90;;;;;;;7.41;100.00;101922.44;10445021;28;20057;-74
2023/01/31 15:35:13;;;;;;;1999.90;999.90;;;;;;;7.53;100.00;101914.31;10462967;28;20093;-75
2023/01/31 17:14:43;;;;;;;1999.90;999.90;;;;;;;7.07;100.00;101972.78;9717380;28;20041;-76
2023/01/31 17:19:46;;;;;;;1999.90;999.90;;;;;;;7.01;100.00;101970.31;10439202;28;20084;-75
2023/01/31 17:24:49;;;;;;;1999.90;999.90;;;;;;;6.97;100.00;101968.69;10478797;28;20048;-75
2023/01/31 17:29:51;;;;;;;1999.90;999.90;;;;;;;6.85;99.04;101975.88;10450144;28;20103;-75
2023/01/31 17:34:54;;;;;;;1999.90;999.90;;;;;;;6.87;97.30;101965.44;10439976;28;20411;-76
2023/01/31 17:39:56;;;;;;;1999.90;999.90;;;;;;;6.79;97.27;101976.03;10457988;28;20095;-76
2023/01/31 17:44:58;;;;;;;1999.90;999.90;;;;;;;6.73;98.01;101983.97;10467824;28;20055;-76
2023/01/31 17:50:01;;;;;;;1999.90;999.90;;;;;;;6.59;97.80;101981.69;10487209;28;20107;-76
2023/01/31 17:55:03;;;;;;;1999.90;999.90;;;;;;;6.53;98.81;101974.00;10453234;28;20404;-75
2023/01/31 18:00:12;;;;;;;1999.90;999.90;;;;;;;6.53;98.85;101968.78;10451627;28;20056;-76
2023/01/31 18:05:15;;;;;;;1999.90;999.90;;;;;;;6.39;100.00;101976.91;10451668;28;20475;-75
2023/01/31 18:10:25;;;;;;;1999.90;999.90;;;;;;;6.36;100.00;101974.34;10435969;28;20119;-76
2023/01/31 18:15:27;;;;;;;1999.90;999.90;;;;;;;6.42;99.03;101965.56;10440143;28;20060;-75
2023/01/31 18:20:30;;;;;;;1999.90;999.90;;;;;;;6.43;99.24;101965.53;10449895;28;20488;-75
2023/01/31 18:25:32;;;;;;;1999.90;999.90;;;;;;;6.33;99.36;101972.66;10446388;28;20057;-75
2023/01/31 18:30:35;;;;;;;1999.90;999.90;;;;;;;6.33;100.00;101970.06;10454126;28;20052;-74
2023/01/31 18:35:37;;;;;;;1999.90;999.90;;;;;;;6.13;100.00;101986.06;10452887;28;20648;-76
2023/01/31 18:40:39;;;;;;;1999.90;999.90;;;;;;;6.16;100.00;101979.97;10453075;28;20045;-75
2023/01/31 18:45:42;;;;;;;1999.90;999.90;;;;;;;6.10;100.00;101999.16;10452536;28;20049;-76
2023/01/31 18:50:44;;;;;;;1999.90;999.90;;;;;;;6.06;100.00;102000.09;10451914;28;20053;-75
2023/01/31 18:55:46;;;;;;;1999.90;999.90;;;;;;;6.01;100.00;102001.06;10452824;28;20512;-75
2023/01/31 19:00:49;;;;;;;1999.90;999.90;;;;;;;6.00;100.00;102002.81;10488373;28;20070;-75
2023/01/31 19:05:52;;;;;;;1999.90;999.90;;;;;;;6.01;100.00;102004.53;10468464;28;20400;-75
2023/01/31 19:10:54;;;;;;;1999.90;999.90;;;;;;;5.99;100.00;102008.91;10447073;28;20068;-75
2023/01/31 19:16:02;;;;;;;1999.90;999.90;;;;;;;5.89;100.00;102007.31;10414939;28;20053;-75
2023/01/31 19:21:18;;;;;;;1999.90;999.90;;;;;;;5.92;100.00;102009.88;10432870;28;20049;-75
2023/01/31 19:26:21;;;;;;;1999.90;999.90;;;;;;;5.95;100.00;101995.06;10454740;28;20061;-75
2023/01/31 19:31:25;;;;;;;1999.90;999.90;;;;;;;5.85;100.00;102006.53;10444028;28;20107;-75
2023/01/31 19:36:33;;;;;;;1999.90;999.90;;;;;;;5.74;100.00;101995.47;10460521;28;20053;-75
2023/01/31 19:41:36;;;;;;;1999.90;999.90;;;;;;;5.90;100.00;101989.09;10433489;28;20075;-75
2023/01/31 19:46:38;;;;;;;1999.90;999.90;;;;;;;5.82;100.00;101992.75;10450942;28;20045;-74
2023/01/31 19:51:40;;;;;;;1999.90;999.90;;;;;;;5.80;100.00;101997.09;10466484;28;20061;-74
2023/01/31 19:56:43;;;;;;;1999.90;999.90;;;;;;;5.66;100.00;102002.53;10484540;28;20053;-75
2023/01/31 20:01:46;;;;;;;1999.90;999.90;;;;;;;5.61;100.00;102000.00;10457709;28;20084;-76
2023/01/31 20:06:50;;;;;;;1999.90;999.90;;;;;;;5.65;100.00;102006.00;10464445;28;20048;-75
2023/01/31 20:11:52;;;;;;;1999.90;999.90;;;;;;;5.68;100.00;102014.63;10458943;28;20075;-75
2023/01/31 20:16:55;;;;;;;1999.90;999.90;;;;;;;5.74;100.00;102011.06;10456635;28;20136;-75
2023/01/31 20:21:58;;;;;;;1999.90;999.90;;;;;;;5.69;100.00;102015.47;10455517;28;20057;-75
2023/01/31 20:27:00;;;;;;;1999.90;999.90;;;;;;;5.67;100.00;102017.25;10456060;28;20048;-75
2023/01/31 20:32:06;;;;;;;1999.90;999.90;;;;;;;5.64;100.00;102007.75;10460483;28;20140;-75
2023/01/31 20:37:09;;;;;;;1999.90;999.90;;;;;;;5.52;100.00;102005.38;10458244;28;20136;-75
2023/01/31 20:42:11;;;;;;;1999.90;999.90;;;;;;;5.44;100.00;102004.66;10459008;28;20419;-75
2023/01/31 20:47:13;;;;;;;1999.90;999.90;;;;;;;5.60;100.00;101998.31;10458256;28;20045;-75
2023/01/31 20:52:16;;;;;;;1999.90;999.90;;;;;;;5.47;100.00;101987.25;10458461;28;20102;-75
2023/01/31 20:57:19;;;;;;;1999.90;999.90;;;;;;;5.40;100.00;101988.25;10460012;28;20045;-74
2023/01/31 21:02:22;;;;;;;1999.90;999.90;;;;;;;5.41;100.00;101992.56;10456343;28;20114;-75
2023/01/31 21:07:24;;;;;;;1999.90;999.90;;;;;;;5.44;100.00;101984.72;10459256;28;20049;-75
2023/01/31 21:12:26;;;;;;;1999.90;999.90;;;;;;;5.28;100.00;101994.50;10458262;28;20385;-75
2023/01/31 21:17:29;;;;;;;1999.90;999.90;;;;;;;5.37;100.00;101981.38;10436858;28;20057;-74
2023/01/31 21:22:41;;;;;;;1999.90;999.90;;;;;;;5.21;100.00;101990.28;10456142;28;20102;-74
2023/01/31 21:27:43;;;;;;;1999.90;999.90;;;;;;;5.08;100.00;101974.06;10455981;28;20498;-75
2023/01/31 21:32:46;;;;;;;1999.90;999.90;;;;;;;5.10;100.00;101981.81;10453373;28;20092;-75
2023/01/31 21:37:48;;;;;;;1999.90;999.90;;;;;;;5.13;100.00;101972.25;10456285;28;20056;-75
2023/01/31 21:42:52;;;;;;;1999.90;999.90;;;;;;;5.00;100.00;101968.13;10454844;28;20102;-74
2023/01/31 21:53:16;;;;;;;1999.90;999.90;;;;;;;4.99;100.00;101956.88;10456927;28;20512;-75
2023/01/31 21:58:19;;;;;;;1999.90;999.90;;;;;;;5.08;100.00;101950.69;10457339;28;20099;-74
2023/01/31 22:03:22;;;;;;;1999.90;999.90;;;;;;;5.03;100.00;101948.16;10455671;28;20511;-74
2023/01/31 22:08:24;;;;;;;1999.90;999.90;;;;;;;4.91;100.00;101948.38;10453911;28;20049;-75
2023/01/31 22:13:26;;;;;;;1999.90;999.90;;;;;;;4.78;100.00;101954.63;10454861;28;20056;-75
2023/01/31 22:18:29;;;;;;;1999.90;999.90;;;;;;;4.67;100.00;101952.16;10435502;28;20450;-74
2023/01/31 22:23:33;;;;;;;1999.90;999.90;;;;;;;4.71;100.00;101950.38;10454574;28;20060;-75
2023/01/31 22:28:37;;;;;;;1999.90;999.90;;;;;;;4.78;100.00;101957.22;10456645;28;20049;-75
2023/01/31 22:33:40;;;;;;;1999.90;999.90;;;;;;;4.67;100.00;101939.19;10463685;28;20065;-74
2023/01/31 22:38:44;;;;;;;1999.90;999.90;;;;;;;4.67;100.00;101936.59;10464859;28;20052;-74
2023/01/31 22:43:48;;;;;;;1999.90;999.90;;;;;;;4.65;100.00;101927.97;10463131;28;20079;-75
2023/01/31 22:48:51;;;;;;;1999.90;999.90;;;;;;;4.60;100.00;101928.03;10461381;28;20056;-74
2023/01/31 22:53:55;;;;;;;1999.90;999.90;;;;;;;4.65;100.00;101917.59;10464485;28;20057;-74
2023/01/31 22:59:03;;;;;;;1999.90;999.90;;;;;;;4.56;100.00;101923.78;10462380;28;20484;-73
2023/01/31 23:04:08;;;;;;;1999.90;999.90;;;;;;;4.45;100.00;101923.94;10462160;28;20451;-74
2023/01/31 23:09:10;;;;;;;1999.90;999.90;;;;;;;4.50;100.00;101907.47;10460076;28;20510;-75
2023/01/31 23:14:13;;;;;;;1999.90;999.90;;;;;;;4.39;100.00;101912.81;10461266;28;20488;-76
2023/01/31 23:19:15;;;;;;;1999.90;999.90;;;;;;;4.46;100.00;101906.66;10461714;28;20107;-74
2023/01/31 23:24:18;;;;;;;1999.90;999.90;;;;;;;4.49;100.00;101901.41;10463277;28;20052;-74
2023/01/31 23:29:20;;;;;;;1999.90;999.90;;;;;;;4.51;100.00;101912.63;10461339;28;20049;-74
2023/01/31 23:34:22;;;;;;;1999.90;999.90;;;;;;;4.38;100.00;101924.91;10462796;28;20061;-74
2023/01/31 23:39:25;;;;;;;1999.90;999.90;;;;;;;4.41;100.00;101922.25;10461464;28;20057;-75
2023/01/31 23:44:27;;;;;;;1999.90;999.90;;;;;;;4.28;100.00;101906.00;10461035;28;20577;-74
2023/01/31 23:49:30;;;;;;;1999.90;999.90;;;;;;;4.37;100.00;101902.44;10421645;28;20072;-74
2023/01/31 23:54:32;;;;;;;1999.90;999.90;;;;;;;4.39;100.00;101902.44;10461488;28;20455;-74